sensor_id;sensor_type;location;lat;lon;timestamp;P1;durP1;ratioP1;P2;durP2;ratioP2
62796;SDS011;48839;48.546;-4.178;2022-10-22T00:01:17;23.60;;;2.88;;
62796;SDS011;48839;48.546;-4.178;2022-10-22T00:03:44;18.00;;;2.80;;
62796;SDS011;48839;48.546;-4.178;2022-10-22T00:06:10;20.48;;;2.90;;
62796;SDS011;48839;48.546;-4.178;2022-10-22T00:08:36;19.55;;;3.10;;
62796;SDS011;48839;48.546;-4.178;2022-10-22T00:11:15;19.25;;;3.15;;
62796;SDS011;48839;48.546;-4.178;2022-10-22T00:13:41;20.63;;;3.17;;
62796;SDS011;48839;48.546;-4.178;2022-10-22T00:16:07;19.60;;;3.20;;
62796;SDS011;48839;48.546;-4.178;2022-10-22T00:18:34;20.77;;;3.50;;
62796;SDS011;48839;48.546;-4.178;2022-10-22T00:21:00;25.10;;;3.65;;
62796;SDS011;48839;48.546;-4.178;2022-10-22T00:23:26;17.95;;;2.85;;
62796;SDS011;48839;48.546;-4.178;2022-10-22T00:25:52;21.48;;;3.05;;
62796;SDS011;48839;48.546;-4.178;2022-10-22T00:28:19;23.58;;;2.70;;
62796;SDS011;48839;48.546;-4.178;2022-10-22T00:30:45;21.75;;;2.88;;
62796;SDS011;48839;48.546;-4.178;2022-10-22T00:33:11;19.55;;;2.55;;
62796;SDS011;48839;48.546;-4.178;2022-10-22T00:35:37;23.88;;;2.83;;
62796;SDS011;48839;48.546;-4.178;2022-10-22T00:38:03;23.83;;;2.67;;
62796;SDS011;48839;48.546;-4.178;2022-10-22T00:40:29;23.48;;;3.00;;
62796;SDS011;48839;48.546;-4.178;2022-10-22T00:42:55;18.52;;;2.72;;
62796;SDS011;48839;48.546;-4.178;2022-10-22T00:45:23;16.88;;;2.80;;
62796;SDS011;48839;48.546;-4.178;2022-10-22T00:50:30;21.85;;;3.15;;
62796;SDS011;48839;48.546;-4.178;2022-10-22T00:52:57;24.52;;;2.85;;
62796;SDS011;48839;48.546;-4.178;2022-10-22T00:55:24;24.35;;;3.75;;
62796;SDS011;48839;48.546;-4.178;2022-10-22T00:57:51;20.30;;;3.35;;
62796;SDS011;48839;48.546;-4.178;2022-10-22T01:00:18;20.60;;;3.13;;
62796;SDS011;48839;48.546;-4.178;2022-10-22T01:02:45;14.57;;;2.97;;
62796;SDS011;48839;48.546;-4.178;2022-10-22T01:05:11;24.95;;;3.42;;
62796;SDS011;48839;48.546;-4.178;2022-10-22T01:07:42;17.92;;;3.22;;
62796;SDS011;48839;48.546;-4.178;2022-10-22T01:18:44;20.58;;;3.60;;
62796;SDS011;48839;48.546;-4.178;2022-10-22T01:21:21;15.35;;;2.45;;
62796;SDS011;48839;48.546;-4.178;2022-10-22T01:26:39;8.98;;;2.60;;
62796;SDS011;48839;48.546;-4.178;2022-10-22T01:31:43;21.27;;;3.20;;
62796;SDS011;48839;48.546;-4.178;2022-10-22T01:34:11;13.95;;;2.50;;
62796;SDS011;48839;48.546;-4.178;2022-10-22T01:36:38;19.77;;;3.58;;
62796;SDS011;48839;48.546;-4.178;2022-10-22T01:39:04;18.92;;;2.72;;
62796;SDS011;48839;48.546;-4.178;2022-10-22T01:41:32;16.80;;;2.67;;
62796;SDS011;48839;48.546;-4.178;2022-10-22T01:43:59;15.35;;;2.53;;
62796;SDS011;48839;48.546;-4.178;2022-10-22T01:46:26;18.55;;;2.78;;
62796;SDS011;48839;48.546;-4.178;2022-10-22T01:49:09;15.57;;;2.20;;
62796;SDS011;48839;48.546;-4.178;2022-10-22T02:01:57;18.80;;;3.05;;
62796;SDS011;48839;48.546;-4.178;2022-10-22T02:04:26;18.60;;;3.05;;
62796;SDS011;48839;48.546;-4.178;2022-10-22T02:06:55;20.08;;;3.45;;
62796;SDS011;48839;48.546;-4.178;2022-10-22T02:09:23;18.92;;;2.83;;
62796;SDS011;48839;48.546;-4.178;2022-10-22T02:11:50;14.25;;;2.63;;
62796;SDS011;48839;48.546;-4.178;2022-10-22T02:14:17;22.55;;;3.10;;
62796;SDS011;48839;48.546;-4.178;2022-10-22T02:16:44;16.60;;;3.30;;
62796;SDS011;48839;48.546;-4.178;2022-10-22T02:21:39;16.20;;;3.10;;
62796;SDS011;48839;48.546;-4.178;2022-10-22T02:24:06;29.23;;;3.67;;
62796;SDS011;48839;48.546;-4.178;2022-10-22T02:26:39;17.90;;;2.25;;
62796;SDS011;48839;48.546;-4.178;2022-10-22T02:29:12;19.45;;;2.58;;
62796;SDS011;48839;48.546;-4.178;2022-10-22T02:31:39;16.38;;;3.88;;
62796;SDS011;48839;48.546;-4.178;2022-10-22T02:34:07;31.05;;;3.22;;
62796;SDS011;48839;48.546;-4.178;2022-10-22T02:36:35;18.38;;;2.88;;
62796;SDS011;48839;48.546;-4.178;2022-10-22T02:39:02;18.33;;;3.08;;
62796;SDS011;48839;48.546;-4.178;2022-10-22T02:41:28;13.88;;;2.28;;
62796;SDS011;48839;48.546;-4.178;2022-10-22T02:43:55;22.52;;;3.58;;
62796;SDS011;48839;48.546;-4.178;2022-10-22T02:46:21;15.07;;;2.10;;
62796;SDS011;48839;48.546;-4.178;2022-10-22T02:48:48;13.25;;;3.10;;
62796;SDS011;48839;48.546;-4.178;2022-10-22T02:51:14;28.27;;;2.88;;
62796;SDS011;48839;48.546;-4.178;2022-10-22T02:53:40;19.88;;;3.05;;
62796;SDS011;48839;48.546;-4.178;2022-10-22T02:56:06;14.43;;;2.70;;
62796;SDS011;48839;48.546;-4.178;2022-10-22T02:58:32;17.48;;;2.83;;
62796;SDS011;48839;48.546;-4.178;2022-10-22T03:00:58;21.05;;;2.75;;
62796;SDS011;48839;48.546;-4.178;2022-10-22T03:03:24;20.15;;;3.13;;
62796;SDS011;48839;48.546;-4.178;2022-10-22T03:05:50;15.40;;;2.40;;
62796;SDS011;48839;48.546;-4.178;2022-10-22T03:08:16;18.92;;;2.95;;
62796;SDS011;48839;48.546;-4.178;2022-10-22T03:10:42;23.65;;;2.97;;
62796;SDS011;48839;48.546;-4.178;2022-10-22T03:13:08;25.10;;;3.45;;
62796;SDS011;48839;48.546;-4.178;2022-10-22T03:15:34;27.02;;;2.80;;
62796;SDS011;48839;48.546;-4.178;2022-10-22T03:18:00;13.90;;;3.05;;
62796;SDS011;48839;48.546;-4.178;2022-10-22T03:20:26;18.35;;;2.78;;
62796;SDS011;48839;48.546;-4.178;2022-10-22T03:22:52;26.75;;;4.03;;
62796;SDS011;48839;48.546;-4.178;2022-10-22T03:25:20;22.38;;;3.55;;
62796;SDS011;48839;48.546;-4.178;2022-10-22T03:27:46;16.58;;;2.70;;
62796;SDS011;48839;48.546;-4.178;2022-10-22T03:30:13;19.88;;;3.08;;
62796;SDS011;48839;48.546;-4.178;2022-10-22T03:32:39;19.85;;;2.75;;
62796;SDS011;48839;48.546;-4.178;2022-10-22T03:35:05;24.20;;;2.85;;
62796;SDS011;48839;48.546;-4.178;2022-10-22T03:37:31;22.33;;;4.22;;
62796;SDS011;48839;48.546;-4.178;2022-10-22T03:39:58;26.15;;;3.25;;
62796;SDS011;48839;48.546;-4.178;2022-10-22T03:42:24;23.98;;;4.00;;
62796;SDS011;48839;48.546;-4.178;2022-10-22T03:44:50;18.85;;;3.13;;
62796;SDS011;48839;48.546;-4.178;2022-10-22T03:47:16;17.00;;;3.15;;
62796;SDS011;48839;48.546;-4.178;2022-10-22T03:49:42;20.30;;;3.60;;
62796;SDS011;48839;48.546;-4.178;2022-10-22T03:52:10;26.58;;;3.22;;
62796;SDS011;48839;48.546;-4.178;2022-10-22T03:54:36;27.25;;;3.10;;
62796;SDS011;48839;48.546;-4.178;2022-10-22T03:57:03;23.85;;;3.10;;
62796;SDS011;48839;48.546;-4.178;2022-10-22T03:59:36;17.20;;;2.78;;
62796;SDS011;48839;48.546;-4.178;2022-10-22T04:02:02;21.53;;;3.80;;
62796;SDS011;48839;48.546;-4.178;2022-10-22T04:04:28;23.67;;;3.22;;
62796;SDS011;48839;48.546;-4.178;2022-10-22T04:06:54;28.75;;;3.33;;
62796;SDS011;48839;48.546;-4.178;2022-10-22T04:09:20;17.98;;;3.47;;
62796;SDS011;48839;48.546;-4.178;2022-10-22T04:11:46;23.50;;;3.13;;
62796;SDS011;48839;48.546;-4.178;2022-10-22T04:14:12;19.05;;;3.05;;
62796;SDS011;48839;48.546;-4.178;2022-10-22T04:16:39;24.10;;;3.92;;
62796;SDS011;48839;48.546;-4.178;2022-10-22T04:19:05;19.30;;;3.38;;
62796;SDS011;48839;48.546;-4.178;2022-10-22T04:21:31;14.68;;;2.92;;
62796;SDS011;48839;48.546;-4.178;2022-10-22T04:23:57;20.05;;;2.58;;
62796;SDS011;48839;48.546;-4.178;2022-10-22T04:26:23;21.13;;;2.65;;
62796;SDS011;48839;48.546;-4.178;2022-10-22T04:28:50;21.80;;;3.45;;
62796;SDS011;48839;48.546;-4.178;2022-10-22T04:31:18;18.13;;;3.33;;
62796;SDS011;48839;48.546;-4.178;2022-10-22T04:33:44;20.20;;;2.78;;
62796;SDS011;48839;48.546;-4.178;2022-10-22T04:36:11;14.75;;;2.55;;
62796;SDS011;48839;48.546;-4.178;2022-10-22T04:38:38;19.98;;;2.70;;
62796;SDS011;48839;48.546;-4.178;2022-10-22T04:41:23;15.07;;;3.05;;
62796;SDS011;48839;48.546;-4.178;2022-10-22T04:43:49;20.42;;;3.28;;
62796;SDS011;48839;48.546;-4.178;2022-10-22T04:46:16;18.30;;;3.28;;
62796;SDS011;48839;48.546;-4.178;2022-10-22T04:48:43;16.33;;;3.00;;
62796;SDS011;48839;48.546;-4.178;2022-10-22T04:51:10;18.08;;;3.47;;
62796;SDS011;48839;48.546;-4.178;2022-10-22T04:53:37;18.70;;;3.10;;
62796;SDS011;48839;48.546;-4.178;2022-10-22T04:56:12;21.77;;;3.58;;
62796;SDS011;48839;48.546;-4.178;2022-10-22T04:58:41;14.27;;;2.50;;
62796;SDS011;48839;48.546;-4.178;2022-10-22T05:03:36;19.92;;;3.42;;
62796;SDS011;48839;48.546;-4.178;2022-10-22T05:06:02;17.52;;;2.60;;
62796;SDS011;48839;48.546;-4.178;2022-10-22T05:08:28;18.90;;;2.63;;
62796;SDS011;48839;48.546;-4.178;2022-10-22T05:10:54;13.55;;;2.67;;
62796;SDS011;48839;48.546;-4.178;2022-10-22T05:13:20;15.35;;;2.60;;
62796;SDS011;48839;48.546;-4.178;2022-10-22T05:15:46;13.55;;;2.25;;
62796;SDS011;48839;48.546;-4.178;2022-10-22T05:18:12;21.02;;;2.83;;
62796;SDS011;48839;48.546;-4.178;2022-10-22T05:20:39;17.63;;;3.17;;
62796;SDS011;48839;48.546;-4.178;2022-10-22T05:23:05;13.10;;;2.70;;
62796;SDS011;48839;48.546;-4.178;2022-10-22T05:25:31;13.60;;;2.85;;
62796;SDS011;48839;48.546;-4.178;2022-10-22T05:27:57;11.13;;;2.25;;
62796;SDS011;48839;48.546;-4.178;2022-10-22T05:30:23;18.42;;;2.67;;
62796;SDS011;48839;48.546;-4.178;2022-10-22T05:32:49;15.70;;;2.80;;
62796;SDS011;48839;48.546;-4.178;2022-10-22T05:35:16;16.95;;;3.05;;
62796;SDS011;48839;48.546;-4.178;2022-10-22T05:37:42;21.50;;;3.20;;
62796;SDS011;48839;48.546;-4.178;2022-10-22T05:40:08;16.35;;;2.90;;
62796;SDS011;48839;48.546;-4.178;2022-10-22T05:42:34;19.60;;;2.88;;
62796;SDS011;48839;48.546;-4.178;2022-10-22T05:45:00;20.63;;;3.63;;
62796;SDS011;48839;48.546;-4.178;2022-10-22T05:47:28;17.35;;;2.70;;
62796;SDS011;48839;48.546;-4.178;2022-10-22T05:49:54;14.88;;;2.83;;
62796;SDS011;48839;48.546;-4.178;2022-10-22T05:52:21;12.82;;;2.72;;
62796;SDS011;48839;48.546;-4.178;2022-10-22T05:54:47;19.85;;;2.95;;
62796;SDS011;48839;48.546;-4.178;2022-10-22T05:57:13;22.15;;;3.13;;
62796;SDS011;48839;48.546;-4.178;2022-10-22T05:59:39;21.08;;;3.00;;
62796;SDS011;48839;48.546;-4.178;2022-10-22T06:02:05;25.45;;;3.08;;
62796;SDS011;48839;48.546;-4.178;2022-10-22T06:04:31;24.42;;;3.88;;
62796;SDS011;48839;48.546;-4.178;2022-10-22T06:06:57;16.33;;;4.15;;
62796;SDS011;48839;48.546;-4.178;2022-10-22T06:09:30;16.92;;;2.58;;
62796;SDS011;48839;48.546;-4.178;2022-10-22T06:11:58;13.18;;;2.40;;
62796;SDS011;48839;48.546;-4.178;2022-10-22T06:14:24;27.45;;;4.15;;
62796;SDS011;48839;48.546;-4.178;2022-10-22T06:16:50;16.65;;;2.88;;
62796;SDS011;48839;48.546;-4.178;2022-10-22T06:19:17;15.77;;;3.40;;
62796;SDS011;48839;48.546;-4.178;2022-10-22T06:21:44;21.27;;;3.47;;
62796;SDS011;48839;48.546;-4.178;2022-10-22T06:24:10;15.75;;;4.20;;
62796;SDS011;48839;48.546;-4.178;2022-10-22T06:26:36;20.02;;;3.10;;
62796;SDS011;48839;48.546;-4.178;2022-10-22T06:29:02;15.85;;;3.50;;
62796;SDS011;48839;48.546;-4.178;2022-10-22T06:31:28;17.50;;;3.05;;
62796;SDS011;48839;48.546;-4.178;2022-10-22T06:34:01;15.32;;;2.88;;
62796;SDS011;48839;48.546;-4.178;2022-10-22T06:36:27;19.98;;;3.40;;
62796;SDS011;48839;48.546;-4.178;2022-10-22T06:38:54;18.17;;;2.78;;
62796;SDS011;48839;48.546;-4.178;2022-10-22T06:41:20;13.88;;;2.75;;
62796;SDS011;48839;48.546;-4.178;2022-10-22T06:43:46;18.55;;;2.90;;
62796;SDS011;48839;48.546;-4.178;2022-10-22T06:46:14;12.27;;;2.72;;
62796;SDS011;48839;48.546;-4.178;2022-10-22T06:48:40;25.77;;;4.38;;
62796;SDS011;48839;48.546;-4.178;2022-10-22T06:51:07;19.00;;;3.15;;
62796;SDS011;48839;48.546;-4.178;2022-10-22T06:53:33;19.77;;;2.95;;
62796;SDS011;48839;48.546;-4.178;2022-10-22T06:58:31;12.25;;;2.63;;
62796;SDS011;48839;48.546;-4.178;2022-10-22T07:01:04;18.27;;;2.83;;
62796;SDS011;48839;48.546;-4.178;2022-10-22T07:03:31;18.42;;;2.63;;
62796;SDS011;48839;48.546;-4.178;2022-10-22T07:05:58;25.23;;;3.10;;
62796;SDS011;48839;48.546;-4.178;2022-10-22T07:08:24;18.33;;;3.10;;
62796;SDS011;48839;48.546;-4.178;2022-10-22T07:10:50;11.45;;;3.00;;
62796;SDS011;48839;48.546;-4.178;2022-10-22T07:13:16;17.70;;;3.38;;
62796;SDS011;48839;48.546;-4.178;2022-10-22T07:15:42;20.27;;;2.88;;
62796;SDS011;48839;48.546;-4.178;2022-10-22T07:18:08;20.80;;;3.45;;
62796;SDS011;48839;48.546;-4.178;2022-10-22T07:20:34;18.52;;;3.88;;
62796;SDS011;48839;48.546;-4.178;2022-10-22T07:23:00;18.90;;;3.55;;
62796;SDS011;48839;48.546;-4.178;2022-10-22T07:25:26;23.00;;;3.83;;
62796;SDS011;48839;48.546;-4.178;2022-10-22T07:27:52;18.40;;;3.65;;
62796;SDS011;48839;48.546;-4.178;2022-10-22T07:30:18;20.85;;;3.05;;
62796;SDS011;48839;48.546;-4.178;2022-10-22T07:32:44;16.88;;;3.70;;
62796;SDS011;48839;48.546;-4.178;2022-10-22T07:35:10;28.75;;;3.45;;
62796;SDS011;48839;48.546;-4.178;2022-10-22T07:37:36;20.15;;;3.38;;
62796;SDS011;48839;48.546;-4.178;2022-10-22T07:40:02;22.35;;;3.75;;
62796;SDS011;48839;48.546;-4.178;2022-10-22T07:42:28;23.02;;;4.28;;
62796;SDS011;48839;48.546;-4.178;2022-10-22T07:44:54;22.98;;;4.80;;
62796;SDS011;48839;48.546;-4.178;2022-10-22T07:47:20;17.25;;;3.75;;
62796;SDS011;48839;48.546;-4.178;2022-10-22T07:49:46;19.25;;;4.22;;
62796;SDS011;48839;48.546;-4.178;2022-10-22T07:52:12;20.67;;;3.50;;
62796;SDS011;48839;48.546;-4.178;2022-10-22T07:54:38;28.27;;;3.83;;
62796;SDS011;48839;48.546;-4.178;2022-10-22T07:57:04;17.60;;;3.00;;
62796;SDS011;48839;48.546;-4.178;2022-10-22T07:59:30;23.98;;;3.40;;
62796;SDS011;48839;48.546;-4.178;2022-10-22T08:01:56;23.40;;;3.70;;
62796;SDS011;48839;48.546;-4.178;2022-10-22T08:04:22;18.63;;;3.30;;
62796;SDS011;48839;48.546;-4.178;2022-10-22T08:06:48;15.18;;;3.25;;
62796;SDS011;48839;48.546;-4.178;2022-10-22T08:09:14;14.70;;;3.10;;
62796;SDS011;48839;48.546;-4.178;2022-10-22T08:11:40;17.67;;;4.03;;
62796;SDS011;48839;48.546;-4.178;2022-10-22T08:14:06;17.67;;;3.35;;
62796;SDS011;48839;48.546;-4.178;2022-10-22T08:16:32;12.13;;;3.80;;
62796;SDS011;48839;48.546;-4.178;2022-10-22T08:18:58;22.65;;;3.20;;
62796;SDS011;48839;48.546;-4.178;2022-10-22T08:21:25;25.13;;;3.53;;
62796;SDS011;48839;48.546;-4.178;2022-10-22T08:23:51;18.35;;;3.03;;
62796;SDS011;48839;48.546;-4.178;2022-10-22T08:26:17;15.98;;;3.40;;
62796;SDS011;48839;48.546;-4.178;2022-10-22T08:28:43;13.68;;;3.00;;
62796;SDS011;48839;48.546;-4.178;2022-10-22T08:31:09;17.85;;;3.10;;
62796;SDS011;48839;48.546;-4.178;2022-10-22T08:33:35;27.25;;;3.67;;
62796;SDS011;48839;48.546;-4.178;2022-10-22T08:36:02;11.07;;;2.70;;
62796;SDS011;48839;48.546;-4.178;2022-10-22T08:38:29;17.45;;;3.53;;
62796;SDS011;48839;48.546;-4.178;2022-10-22T08:40:58;20.30;;;3.40;;
62796;SDS011;48839;48.546;-4.178;2022-10-22T08:46:16;17.13;;;3.50;;
62796;SDS011;48839;48.546;-4.178;2022-10-22T08:48:50;11.75;;;3.00;;
62796;SDS011;48839;48.546;-4.178;2022-10-22T08:51:18;18.27;;;3.00;;
62796;SDS011;48839;48.546;-4.178;2022-10-22T08:56:14;14.07;;;2.50;;
62796;SDS011;48839;48.546;-4.178;2022-10-22T09:01:23;17.05;;;2.97;;
62796;SDS011;48839;48.546;-4.178;2022-10-22T09:03:56;13.23;;;2.65;;
62796;SDS011;48839;48.546;-4.178;2022-10-22T09:06:24;18.02;;;2.25;;
62796;SDS011;48839;48.546;-4.178;2022-10-22T09:08:50;12.52;;;2.15;;
62796;SDS011;48839;48.546;-4.178;2022-10-22T09:13:46;17.00;;;2.45;;
62796;SDS011;48839;48.546;-4.178;2022-10-22T09:24:10;21.05;;;3.17;;
62796;SDS011;48839;48.546;-4.178;2022-10-22T09:26:37;10.05;;;2.25;;
62796;SDS011;48839;48.546;-4.178;2022-10-22T09:29:05;12.57;;;2.60;;
62796;SDS011;48839;48.546;-4.178;2022-10-22T09:31:31;7.95;;;2.10;;
62796;SDS011;48839;48.546;-4.178;2022-10-22T09:33:58;12.27;;;2.42;;
62796;SDS011;48839;48.546;-4.178;2022-10-22T09:36:29;13.63;;;2.45;;
62796;SDS011;48839;48.546;-4.178;2022-10-22T09:38:56;10.23;;;2.08;;
62796;SDS011;48839;48.546;-4.178;2022-10-22T09:41:23;14.00;;;2.88;;
62796;SDS011;48839;48.546;-4.178;2022-10-22T09:43:49;10.48;;;1.98;;
62796;SDS011;48839;48.546;-4.178;2022-10-22T09:46:19;10.80;;;2.60;;
62796;SDS011;48839;48.546;-4.178;2022-10-22T09:48:49;13.68;;;2.88;;
62796;SDS011;48839;48.546;-4.178;2022-10-22T09:53:46;11.43;;;2.70;;
62796;SDS011;48839;48.546;-4.178;2022-10-22T09:56:55;13.05;;;2.90;;
62796;SDS011;48839;48.546;-4.178;2022-10-22T09:59:02;14.07;;;2.92;;
62796;SDS011;48839;48.546;-4.178;2022-10-22T10:01:30;10.32;;;2.10;;
62796;SDS011;48839;48.546;-4.178;2022-10-22T10:04:01;12.77;;;2.63;;
62796;SDS011;48839;48.546;-4.178;2022-10-22T10:06:29;12.43;;;2.13;;
62796;SDS011;48839;48.546;-4.178;2022-10-22T10:08:56;10.07;;;2.38;;
62796;SDS011;48839;48.546;-4.178;2022-10-22T10:11:27;12.80;;;2.35;;
62796;SDS011;48839;48.546;-4.178;2022-10-22T10:16:24;9.02;;;1.88;;
62796;SDS011;48839;48.546;-4.178;2022-10-22T10:21:33;9.32;;;2.20;;
62796;SDS011;48839;48.546;-4.178;2022-10-22T10:29:26;5.30;;;1.75;;
62796;SDS011;48839;48.546;-4.178;2022-10-22T10:32:14;6.65;;;1.75;;
62796;SDS011;48839;48.546;-4.178;2022-10-22T10:34:44;7.57;;;1.38;;
62796;SDS011;48839;48.546;-4.178;2022-10-22T10:37:14;4.53;;;1.30;;
62796;SDS011;48839;48.546;-4.178;2022-10-22T10:50:19;8.18;;;1.60;;
62796;SDS011;48839;48.546;-4.178;2022-10-22T10:55:21;9.15;;;1.33;;
62796;SDS011;48839;48.546;-4.178;2022-10-22T10:58:38;5.72;;;1.50;;
62796;SDS011;48839;48.546;-4.178;2022-10-22T11:00:51;6.25;;;1.33;;
62796;SDS011;48839;48.546;-4.178;2022-10-22T11:06:08;6.13;;;1.38;;
62796;SDS011;48839;48.546;-4.178;2022-10-22T11:13:40;2.83;;;1.00;;
62796;SDS011;48839;48.546;-4.178;2022-10-22T11:16:22;4.00;;;0.93;;
62796;SDS011;48839;48.546;-4.178;2022-10-22T11:21:31;4.47;;;1.10;;
62796;SDS011;48839;48.546;-4.178;2022-10-22T11:24:12;3.42;;;0.90;;
62796;SDS011;48839;48.546;-4.178;2022-10-22T11:26:52;2.20;;;1.25;;
62796;SDS011;48839;48.546;-4.178;2022-10-22T11:29:23;7.07;;;1.25;;
62796;SDS011;48839;48.546;-4.178;2022-10-22T11:31:50;3.22;;;0.88;;
62796;SDS011;48839;48.546;-4.178;2022-10-22T11:34:30;5.03;;;0.90;;
62796;SDS011;48839;48.546;-4.178;2022-10-22T11:36:59;6.95;;;1.23;;
62796;SDS011;48839;48.546;-4.178;2022-10-22T11:40:13;5.00;;;1.83;;
62796;SDS011;48839;48.546;-4.178;2022-10-22T11:42:19;3.95;;;0.95;;
62796;SDS011;48839;48.546;-4.178;2022-10-22T11:44:57;6.28;;;1.20;;
62796;SDS011;48839;48.546;-4.178;2022-10-22T11:47:25;4.05;;;0.93;;
62796;SDS011;48839;48.546;-4.178;2022-10-22T11:49:55;4.38;;;0.90;;
62796;SDS011;48839;48.546;-4.178;2022-10-22T11:55:00;4.05;;;0.90;;
62796;SDS011;48839;48.546;-4.178;2022-10-22T11:57:28;5.35;;;1.20;;
62796;SDS011;48839;48.546;-4.178;2022-10-22T11:59:58;3.33;;;1.00;;
62796;SDS011;48839;48.546;-4.178;2022-10-22T12:04:54;4.50;;;0.90;;
62796;SDS011;48839;48.546;-4.178;2022-10-22T12:10:15;4.40;;;0.60;;
62796;SDS011;48839;48.546;-4.178;2022-10-22T12:12:43;6.30;;;1.03;;
62796;SDS011;48839;48.546;-4.178;2022-10-22T12:15:22;4.40;;;1.00;;
62796;SDS011;48839;48.546;-4.178;2022-10-22T12:17:48;5.25;;;1.30;;
62796;SDS011;48839;48.546;-4.178;2022-10-22T12:20:15;5.47;;;1.00;;
62796;SDS011;48839;48.546;-4.178;2022-10-22T12:22:41;2.80;;;1.35;;
62796;SDS011;48839;48.546;-4.178;2022-10-22T12:25:18;2.65;;;0.90;;
62796;SDS011;48839;48.546;-4.178;2022-10-22T12:27:49;6.70;;;1.02;;
62796;SDS011;48839;48.546;-4.178;2022-10-22T12:30:17;4.95;;;1.20;;
62796;SDS011;48839;48.546;-4.178;2022-10-22T12:32:43;3.72;;;0.90;;
62796;SDS011;48839;48.546;-4.178;2022-10-22T12:35:20;6.78;;;1.10;;
62796;SDS011;48839;48.546;-4.178;2022-10-22T12:38:09;5.07;;;1.23;;
62796;SDS011;48839;48.546;-4.178;2022-10-22T12:40:38;6.88;;;1.75;;
62796;SDS011;48839;48.546;-4.178;2022-10-22T12:43:18;2.35;;;0.70;;
62796;SDS011;48839;48.546;-4.178;2022-10-22T12:45:45;4.07;;;0.90;;
62796;SDS011;48839;48.546;-4.178;2022-10-22T12:50:41;5.82;;;1.10;;
62796;SDS011;48839;48.546;-4.178;2022-10-22T12:53:18;4.72;;;0.80;;
62796;SDS011;48839;48.546;-4.178;2022-10-22T12:55:48;3.67;;;0.90;;
62796;SDS011;48839;48.546;-4.178;2022-10-22T12:58:28;4.05;;;1.35;;
62796;SDS011;48839;48.546;-4.178;2022-10-22T13:00:56;4.78;;;1.00;;
62796;SDS011;48839;48.546;-4.178;2022-10-22T13:03:28;6.38;;;1.17;;
62796;SDS011;48839;48.546;-4.178;2022-10-22T13:05:54;7.03;;;1.10;;
62796;SDS011;48839;48.546;-4.178;2022-10-22T13:08:21;6.15;;;1.13;;
62796;SDS011;48839;48.546;-4.178;2022-10-22T13:10:51;5.00;;;0.90;;
62796;SDS011;48839;48.546;-4.178;2022-10-22T13:13:31;5.22;;;0.85;;
62796;SDS011;48839;48.546;-4.178;2022-10-22T13:16:11;2.15;;;0.70;;
62796;SDS011;48839;48.546;-4.178;2022-10-22T13:18:37;4.15;;;1.00;;
62796;SDS011;48839;48.546;-4.178;2022-10-22T13:21:03;4.13;;;1.88;;
62796;SDS011;48839;48.546;-4.178;2022-10-22T13:23:31;4.78;;;1.08;;
62796;SDS011;48839;48.546;-4.178;2022-10-22T13:26:13;6.72;;;1.23;;
62796;SDS011;48839;48.546;-4.178;2022-10-22T13:28:40;9.17;;;1.93;;
62796;SDS011;48839;48.546;-4.178;2022-10-22T13:31:08;5.95;;;1.10;;
62796;SDS011;48839;48.546;-4.178;2022-10-22T13:33:35;3.35;;;0.98;;
62796;SDS011;48839;48.546;-4.178;2022-10-22T13:36:02;5.63;;;1.10;;
62796;SDS011;48839;48.546;-4.178;2022-10-22T13:38:28;6.47;;;1.00;;
62796;SDS011;48839;48.546;-4.178;2022-10-22T13:40:54;6.72;;;1.25;;
62796;SDS011;48839;48.546;-4.178;2022-10-22T13:43:21;4.78;;;1.00;;
62796;SDS011;48839;48.546;-4.178;2022-10-22T13:45:47;4.47;;;0.80;;
62796;SDS011;48839;48.546;-4.178;2022-10-22T13:48:16;3.85;;;0.95;;
62796;SDS011;48839;48.546;-4.178;2022-10-22T13:50:45;7.85;;;1.30;;
62796;SDS011;48839;48.546;-4.178;2022-10-22T13:53:15;3.45;;;0.77;;
62796;SDS011;48839;48.546;-4.178;2022-10-22T13:55:42;5.65;;;1.40;;
62796;SDS011;48839;48.546;-4.178;2022-10-22T13:58:10;3.90;;;1.10;;
62796;SDS011;48839;48.546;-4.178;2022-10-22T14:00:37;7.28;;;1.00;;
62796;SDS011;48839;48.546;-4.178;2022-10-22T14:03:04;7.32;;;1.00;;
62796;SDS011;48839;48.546;-4.178;2022-10-22T14:05:30;6.05;;;1.25;;
62796;SDS011;48839;48.546;-4.178;2022-10-22T14:07:59;5.88;;;1.00;;
62796;SDS011;48839;48.546;-4.178;2022-10-22T14:10:26;10.32;;;1.42;;
62796;SDS011;48839;48.546;-4.178;2022-10-22T14:12:52;4.53;;;1.20;;
62796;SDS011;48839;48.546;-4.178;2022-10-22T14:15:19;9.48;;;1.00;;
62796;SDS011;48839;48.546;-4.178;2022-10-22T14:17:46;8.25;;;1.33;;
62796;SDS011;48839;48.546;-4.178;2022-10-22T14:20:23;5.43;;;1.13;;
62796;SDS011;48839;48.546;-4.178;2022-10-22T14:22:50;4.75;;;1.10;;
62796;SDS011;48839;48.546;-4.178;2022-10-22T14:25:18;5.72;;;1.45;;
62796;SDS011;48839;48.546;-4.178;2022-10-22T14:27:44;6.03;;;1.20;;
62796;SDS011;48839;48.546;-4.178;2022-10-22T14:30:14;2.35;;;0.73;;
62796;SDS011;48839;48.546;-4.178;2022-10-22T14:32:40;4.20;;;0.90;;
62796;SDS011;48839;48.546;-4.178;2022-10-22T14:35:08;9.18;;;1.20;;
62796;SDS011;48839;48.546;-4.178;2022-10-22T14:37:34;4.40;;;1.10;;
62796;SDS011;48839;48.546;-4.178;2022-10-22T14:40:00;5.43;;;1.58;;
62796;SDS011;48839;48.546;-4.178;2022-10-22T14:42:27;5.63;;;1.40;;
62796;SDS011;48839;48.546;-4.178;2022-10-22T14:44:53;6.55;;;1.15;;
62796;SDS011;48839;48.546;-4.178;2022-10-22T14:47:20;11.25;;;1.33;;
62796;SDS011;48839;48.546;-4.178;2022-10-22T14:49:46;6.68;;;1.42;;
62796;SDS011;48839;48.546;-4.178;2022-10-22T14:52:12;2.28;;;0.98;;
62796;SDS011;48839;48.546;-4.178;2022-10-22T14:54:37;5.68;;;1.30;;
62796;SDS011;48839;48.546;-4.178;2022-10-22T14:57:04;7.55;;;1.10;;
62796;SDS011;48839;48.546;-4.178;2022-10-22T14:59:30;4.28;;;0.90;;
62796;SDS011;48839;48.546;-4.178;2022-10-22T15:01:56;8.15;;;1.58;;
62796;SDS011;48839;48.546;-4.178;2022-10-22T15:04:22;4.88;;;0.90;;
62796;SDS011;48839;48.546;-4.178;2022-10-22T15:06:50;4.43;;;1.10;;
62796;SDS011;48839;48.546;-4.178;2022-10-22T15:09:20;5.60;;;1.25;;
62796;SDS011;48839;48.546;-4.178;2022-10-22T15:11:46;6.03;;;1.13;;
62796;SDS011;48839;48.546;-4.178;2022-10-22T15:14:12;5.05;;;1.08;;
62796;SDS011;48839;48.546;-4.178;2022-10-22T15:16:39;5.72;;;1.20;;
62796;SDS011;48839;48.546;-4.178;2022-10-22T15:19:05;5.97;;;1.00;;
62796;SDS011;48839;48.546;-4.178;2022-10-22T15:21:31;4.63;;;1.27;;
62796;SDS011;48839;48.546;-4.178;2022-10-22T15:23:57;5.60;;;1.20;;
62796;SDS011;48839;48.546;-4.178;2022-10-22T15:26:24;4.70;;;1.30;;
62796;SDS011;48839;48.546;-4.178;2022-10-22T15:28:51;5.65;;;1.15;;
62796;SDS011;48839;48.546;-4.178;2022-10-22T15:31:39;4.35;;;1.00;;
62796;SDS011;48839;48.546;-4.178;2022-10-22T15:34:04;2.92;;;0.90;;
62796;SDS011;48839;48.546;-4.178;2022-10-22T15:36:30;6.90;;;0.95;;
62796;SDS011;48839;48.546;-4.178;2022-10-22T15:38:56;5.22;;;0.93;;
62796;SDS011;48839;48.546;-4.178;2022-10-22T15:41:22;4.65;;;1.08;;
62796;SDS011;48839;48.546;-4.178;2022-10-22T15:43:48;4.22;;;1.05;;
62796;SDS011;48839;48.546;-4.178;2022-10-22T15:46:15;5.32;;;0.90;;
62796;SDS011;48839;48.546;-4.178;2022-10-22T15:48:41;4.78;;;1.15;;
62796;SDS011;48839;48.546;-4.178;2022-10-22T15:51:17;3.13;;;0.70;;
62796;SDS011;48839;48.546;-4.178;2022-10-22T15:53:43;2.85;;;1.15;;
62796;SDS011;48839;48.546;-4.178;2022-10-22T15:56:09;4.00;;;0.90;;
62796;SDS011;48839;48.546;-4.178;2022-10-22T15:58:36;4.95;;;1.30;;
62796;SDS011;48839;48.546;-4.178;2022-10-22T16:01:02;2.83;;;0.80;;
62796;SDS011;48839;48.546;-4.178;2022-10-22T16:03:29;5.72;;;1.25;;
62796;SDS011;48839;48.546;-4.178;2022-10-22T16:05:55;5.28;;;1.08;;
62796;SDS011;48839;48.546;-4.178;2022-10-22T16:08:22;3.53;;;1.33;;
62796;SDS011;48839;48.546;-4.178;2022-10-22T16:10:48;6.60;;;0.88;;